Time;durP1;ratioP1;P1;durP2;ratioP2;P2;SDS_P1;SDS_P2;PMS_P1;PMS_P2;Temp;Humidity;BMP_temperature;BMP_pressure;BME280_temperature;BME280_humidity;BME280_pressure;Samples;Min_cycle;Max_cycle;Signal;HPM_P1;HPM_P2
2023/07/02 00:00:54;;;;;;;0.00;0.00;;;;;;;;;;7372720;19;20160;-68
2023/07/02 00:03:23;;;;;;;0.00;0.00;;;18.90;99.90;;;;;;7361241;19;20184;-68
2023/07/02 00:05:54;;;;;;;0.00;0.00;;;18.90;99.90;;;;;;7370490;19;20152;-68
2023/07/02 00:08:23;;;;;;;0.00;0.00;;;18.90;99.90;;;;;;7372399;19;20228;-69
2023/07/02 00:10:51;;;;;;;0.00;0.00;;;18.90;99.90;;;;;;7372376;19;20178;-69
2023/07/02 00:13:20;;;;;;;0.00;0.00;;;18.90;99.90;;;;;;7372023;19;20177;-69
2023/07/02 00:15:52;;;;;;;0.00;0.00;;;18.90;99.90;;;;;;7372279;19;20148;-70
2023/07/02 00:18:20;;;;;;;0.00;0.00;;;18.90;99.90;;;;;;7379405;19;20148;-69
2023/07/02 00:20:49;;;;;;;0.00;0.00;;;18.80;99.90;;;;;;7379689;19;20159;-69
2023/07/02 00:23:18;;;;;;;0.00;0.00;;;18.90;99.90;;;;;;7377989;19;20183;-68
2023/07/02 00:25:47;;;;;;;0.00;0.00;;;18.80;99.90;;;;;;7378152;19;20206;-69
2023/07/02 00:28:17;;;;;;;0.00;0.00;;;18.90;99.90;;;;;;7379500;19;20152;-70
2023/07/02 00:30:46;;;;;;;0.00;0.00;;;18.90;99.90;;;;;;7378684;19;20149;-69
2023/07/02 00:33:18;;;;;;;0.00;0.00;;;18.90;99.90;;;;;;7378684;19;20504;-69
2023/07/02 00:35:47;;;;;;;0.00;0.00;;;18.80;99.90;;;;;;7376767;19;20161;-69
2023/07/02 00:38:16;;;;;;;0.00;0.00;;;18.80;99.90;;;;;;7377948;19;20186;-70
2023/07/02 00:40:45;;;;;;;0.00;0.00;;;18.80;99.90;;;;;;7379669;19;20156;-70
2023/07/02 00:43:14;;;;;;;0.00;0.00;;;18.80;99.90;;;;;;7377915;19;20188;-69
2023/07/02 00:45:43;;;;;;;0.00;0.00;;;18.80;99.90;;;;;;7376086;19;20153;-70
2023/07/02 00:48:12;;;;;;;0.00;0.00;;;18.80;99.90;;;;;;7377248;19;20156;-70
2023/07/02 00:50:44;;;;;;;0.00;0.00;;;18.80;99.90;;;;;;7378700;19;20185;-69
2023/07/02 00:53:13;;;;;;;0.00;0.00;;;18.80;99.90;;;;;;7376491;19;20176;-69
2023/07/02 00:55:42;;;;;;;0.00;0.00;;;18.80;99.90;;;;;;7376708;19;20152;-69
2023/07/02 00:58:11;;;;;;;0.00;0.00;;;18.80;99.90;;;;;;7378864;19;20161;-70
2023/07/02 01:00:42;;;;;;;0.00;0.00;;;18.70;99.90;;;;;;7378569;19;20153;-70
2023/07/02 01:03:11;;;;;;;0.00;0.00;;;18.70;99.90;;;;;;7375184;19;20215;-69
2023/07/02 01:05:43;;;;;;;0.00;0.00;;;18.70;99.90;;;;;;7374935;19;20176;-69
2023/07/02 01:08:12;;;;;;;0.00;0.00;;;18.70;99.90;;;;;;7378524;19;20172;-70
2023/07/02 01:10:42;;;;;;;0.00;0.00;;;18.70;99.90;;;;;;7378572;19;20148;-70
2023/07/02 01:13:17;;;;;;;0.00;0.00;;;18.70;99.90;;;;;;7377648;19;20247;-69
2023/07/02 01:15:47;;;;;;;0.00;0.00;;;18.70;99.90;;;;;;7377151;19;20147;-70
2023/07/02 01:18:17;;;;;;;0.00;0.00;;;18.70;99.90;;;;;;7378982;19;20190;-70
2023/07/02 01:20:49;;;;;;;0.00;0.00;;;18.70;99.90;;;;;;7377879;19;20148;-69
2023/07/02 01:23:18;;;;;;;0.00;0.00;;;18.60;99.90;;;;;;7377608;19;20289;-69
2023/07/02 01:25:47;;;;;;;0.00;0.00;;;18.60;99.90;;;;;;7375734;19;20153;-70
2023/07/02 01:28:16;;;;;;;0.00;0.00;;;18.60;99.90;;;;;;7377220;19;20157;-70
2023/07/02 01:30:45;;;;;;;0.00;0.00;;;18.60;99.90;;;;;;7377266;19;20232;-70
2023/07/02 01:33:13;;;;;;;0.00;0.00;;;18.60;99.90;;;;;;7376631;19;20212;-69
2023/07/02 01:35:42;;;;;;;0.00;0.00;;;18.50;99.90;;;;;;7373725;19;20148;-69
2023/07/02 01:38:14;;;;;;;0.00;0.00;;;18.50;99.90;;;;;;7378738;19;20159;-70
2023/07/02 01:40:42;;;;;;;0.00;0.00;;;18.50;99.90;;;;;;7377570;19;20148;-70
2023/07/02 01:43:11;;;;;;;0.00;0.00;;;18.50;99.90;;;;;;7377545;19;20674;-70
2023/07/02 01:45:40;;;;;;;0.00;0.00;;;18.50;99.90;;;;;;7375282;19;20157;-69
2023/07/02 01:48:09;;;;;;;0.00;0.00;;;18.50;99.90;;;;;;7378589;19;20156;-70
2023/07/02 01:50:37;;;;;;;0.00;0.00;;;18.40;99.90;;;;;;7377859;19;20510;-70
2023/07/02 01:53:06;;;;;;;0.00;0.00;;;18.40;99.90;;;;;;7375273;19;20834;-69
2023/07/02 01:55:38;;;;;;;0.00;0.00;;;18.40;99.90;;;;;;7375632;19;20153;-69
2023/07/02 01:58:07;;;;;;;0.00;0.00;;;18.40;99.90;;;;;;7377311;19;20140;-69
2023/07/02 02:00:36;;;;;;;0.00;0.00;;;18.40;99.90;;;;;;7378231;19;20182;-69
2023/07/02 02:03:06;;;;;;;0.00;0.00;;;18.40;99.90;;;;;;7375666;19;20180;-69
2023/07/02 02:05:35;;;;;;;0.00;0.00;;;;;;;;;;7374864;19;20180;-69
2023/07/02 02:08:04;;;;;;;0.00;0.00;;;;;;;;;;7376683;19;20160;-68
2023/07/02 02:10:33;;;;;;;0.00;0.00;;;18.40;99.90;;;;;;7377760;19;20153;-69
2023/07/02 02:13:05;;;;;;;0.00;0.00;;;18.40;99.90;;;;;;7373355;19;20188;-69
2023/07/02 02:15:33;;;;;;;0.00;0.00;;;18.30;99.90;;;;;;7374341;19;20156;-69
2023/07/02 02:18:02;;;;;;;0.00;0.00;;;18.30;99.90;;;;;;7375090;19;20212;-70
2023/07/02 02:20:31;;;;;;;0.00;0.00;;;18.30;99.90;;;;;;7376728;19;20152;-69
2023/07/02 02:23:00;;;;;;;0.00;0.00;;;18.30;99.90;;;;;;7375040;19;20184;-69
2023/07/02 02:25:29;;;;;;;0.00;0.00;;;18.20;99.90;;;;;;7375354;19;20149;-69
2023/07/02 02:27:58;;;;;;;0.00;0.00;;;18.20;99.90;;;;;;7377075;19;20148;-69
2023/07/02 02:30:30;;;;;;;0.00;0.00;;;18.20;99.90;;;;;;7377078;19;20160;-69
2023/07/02 02:32:58;;;;;;;0.00;0.00;;;18.20;99.90;;;;;;7374504;19;20187;-69
2023/07/02 02:35:29;;;;;;;0.00;0.00;;;18.20;99.90;;;;;;7374247;19;20152;-70
2023/07/02 02:37:58;;;;;;;0.00;0.00;;;18.20;99.90;;;;;;7376520;19;20167;-70
2023/07/02 02:40:27;;;;;;;0.00;0.00;;;18.20;99.90;;;;;;7377459;19;20133;-70
2023/07/02 02:42:55;;;;;;;0.00;0.00;;;18.20;99.90;;;;;;7376225;19;20180;-69
2023/07/02 02:45:24;;;;;;;0.00;0.00;;;18.20;99.90;;;;;;7375353;19;20212;-71
2023/07/02 02:47:56;;;;;;;0.00;0.00;;;18.20;99.90;;;;;;7376307;19;20147;-69
2023/07/02 02:50:25;;;;;;;0.00;0.00;;;18.10;99.90;;;;;;7375827;19;20228;-70
2023/07/02 02:52:53;;;;;;;0.00;0.00;;;18.10;99.90;;;;;;7374103;19;20188;-69
2023/07/02 02:55:22;;;;;;;0.00;0.00;;;18.10;99.90;;;;;;7374139;19;20164;-70
2023/07/02 02:57:51;;;;;;;0.00;0.00;;;18.10;99.90;;;;;;7375479;19;20160;-69
2023/07/02 03:00:20;;;;;;;0.00;0.00;;;18.10;99.90;;;;;;7377017;19;20153;-69
2023/07/02 03:02:49;;;;;;;0.00;0.00;;;18.00;99.90;;;;;;7373836;19;20176;-69
2023/07/02 03:05:20;;;;;;;0.00;0.00;;;18.00;99.90;;;;;;7374076;19;20195;-70
2023/07/02 03:07:49;;;;;;;0.00;0.00;;;18.00;99.90;;;;;;7375321;19;20144;-68
2023/07/02 03:10:18;;;;;;;0.00;0.00;;;18.00;99.90;;;;;;7374429;19;20193;-68
2023/07/02 03:12:47;;;;;;;0.00;0.00;;;18.00;99.90;;;;;;7369261;19;20210;-69
2023/07/02 03:15:17;;;;;;;0.00;0.00;;;18.00;99.90;;;;;;7373919;19;20159;-68
2023/07/02 03:17:46;;;;;;;0.00;0.00;;;18.00;99.90;;;;;;7373190;19;20161;-69
2023/07/02 03:20:15;;;;;;;0.00;0.00;;;17.90;99.90;;;;;;7375423;19;20149;-69
2023/07/02 03:22:46;;;;;;;0.00;0.00;;;18.00;99.90;;;;;;7370673;19;20176;-69
2023/07/02 03:25:15;;;;;;;0.00;0.00;;;17.90;99.90;;;;;;7372563;19;20149;-68
2023/07/02 03:27:44;;;;;;;0.00;0.00;;;17.80;99.90;;;;;;7374244;19;20179;-68
2023/07/02 03:30:13;;;;;;;0.00;0.00;;;17.80;99.90;;;;;;7373590;19;20157;-68
2023/07/02 03:32:42;;;;;;;0.00;0.00;;;17.80;99.90;;;;;;7373606;19;20204;-68
2023/07/02 03:35:11;;;;;;;0.00;0.00;;;17.70;99.90;;;;;;7372943;19;20184;-67
2023/07/02 03:37:41;;;;;;;0.00;0.00;;;17.80;99.90;;;;;;7373530;19;20153;-68
2023/07/02 03:40:14;;;;;;;0.00;0.00;;;17.80;99.90;;;;;;7374480;19;20169;-69
2023/07/02 03:42:42;;;;;;;0.00;0.00;;;17.70;99.90;;;;;;7373309;19;20187;-68
2023/07/02 03:45:12;;;;;;;0.00;0.00;;;17.70;99.90;;;;;;7372549;19;20160;-67
2023/07/02 03:47:41;;;;;;;0.00;0.00;;;17.70;99.90;;;;;;7373289;19;20176;-68
2023/07/02 03:50:11;;;;;;;0.00;0.00;;;17.60;99.90;;;;;;7373923;19;20141;-69
2023/07/02 03:52:40;;;;;;;0.00;0.00;;;;;;;;;;7380020;19;20176;-69
2023/07/02 03:55:12;;;;;;;0.00;0.00;;;17.60;99.90;;;;;;7380743;19;20178;-69
2023/07/02 03:57:41;;;;;;;0.00;0.00;;;17.60;99.90;;;;;;7380449;19;20149;-68
2023/07/02 04:00:12;;;;;;;0.00;0.00;;;17.60;99.90;;;;;;7381944;19;20168;-68
2023/07/02 04:02:44;;;;;;;0.00;0.00;;;17.70;99.90;;;;;;7382186;19;20153;-69
2023/07/02 04:05:12;;;;;;;0.00;0.00;;;17.80;99.90;;;;;;7378309;19;20149;-68
2023/07/02 04:07:41;;;;;;;0.00;0.00;;;18.00;99.90;;;;;;7379398;19;20148;-68
2023/07/02 04:10:13;;;;;;;0.00;0.00;;;18.10;99.90;;;;;;7382231;19;20156;-68
2023/07/02 04:12:42;;;;;;;0.00;0.00;;;18.20;99.90;;;;;;7379425;19;20184;-69
2023/07/02 04:15:12;;;;;;;0.00;0.00;;;18.20;99.90;;;;;;7378465;19;20157;-68
2023/07/02 04:17:40;;;;;;;0.00;0.00;;;18.10;99.90;;;;;;7379716;19;20152;-68
2023/07/02 04:20:12;;;;;;;0.00;0.00;;;18.10;99.90;;;;;;7380244;19;20153;-68
2023/07/02 04:22:41;;;;;;;0.00;0.00;;;18.10;99.90;;;;;;7375933;19;20177;-69
2023/07/02 04:25:14;;;;;;;0.00;0.00;;;18.20;99.90;;;;;;7379425;19;20144;-69
2023/07/02 04:27:43;;;;;;;0.00;0.00;;;18.40;99.90;;;;;;7380232;19;20186;-68
2023/07/02 04:30:14;;;;;;;0.00;0.00;;;18.60;99.90;;;;;;7380254;19;20152;-68
2023/07/02 04:32:43;;;;;;;0.00;0.00;;;18.70;99.90;;;;;;7379489;19;20183;-68
2023/07/02 04:35:12;;;;;;;0.00;0.00;;;18.90;99.90;;;;;;7377864;19;20159;-67
2023/07/02 04:37:41;;;;;;;0.00;0.00;;;18.90;99.90;;;;;;7379198;19;20684;-68
2023/07/02 04:40:11;;;;;;;0.00;0.00;;;19.00;99.90;;;;;;7379478;19;20620;-68
2023/07/02 04:42:46;;;;;;;0.00;0.00;;;18.90;99.90;;;;;;7378249;19;20180;-68
2023/07/02 04:45:17;;;;;;;0.00;0.00;;;18.90;99.90;;;;;;7377421;19;20156;-69
2023/07/02 04:47:47;;;;;;;0.00;0.00;;;18.70;99.90;;;;;;7378285;19;20201;-68
2023/07/02 04:50:15;;;;;;;0.00;0.00;;;18.70;99.90;;;;;;7380475;19;20157;-68
2023/07/02 04:52:44;;;;;;;0.00;0.00;;;18.60;99.90;;;;;;7377628;19;20184;-67
2023/07/02 04:55:13;;;;;;;0.00;0.00;;;18.60;99.90;;;;;;7378508;19;20161;-67
2023/07/02 04:57:45;;;;;;;0.00;0.00;;;18.50;99.90;;;;;;7379067;19;20149;-68
2023/07/02 05:00:16;;;;;;;0.00;0.00;;;18.50;99.90;;;;;;7378593;19;20149;-68
2023/07/02 05:02:45;;;;;;;0.00;0.00;;;18.50;99.90;;;;;;7374670;19;20188;-69
2023/07/02 05:05:14;;;;;;;0.00;0.00;;;18.50;99.90;;;;;;7377045;19;20155;-67
2023/07/02 05:07:43;;;;;;;0.00;0.00;;;18.50;99.90;;;;;;7379221;19;20144;-68
2023/07/02 05:10:13;;;;;;;0.00;0.00;;;18.40;99.90;;;;;;7379281;19;20156;-68
2023/07/02 05:12:41;;;;;;;0.00;0.00;;;18.50;99.90;;;;;;7374677;19;20184;-67
2023/07/02 05:15:14;;;;;;;0.00;0.00;;;18.50;99.90;;;;;;7377544;19;20148;-68
2023/07/02 05:17:43;;;;;;;0.00;0.00;;;18.50;99.90;;;;;;7377607;19;20152;-68
2023/07/02 05:20:13;;;;;;;0.00;0.00;;;18.80;99.90;;;;;;7379524;19;20212;-68
2023/07/02 05:22:42;;;;;;;0.00;0.00;;;18.90;99.90;;;;;;7373356;19;20204;-68
2023/07/02 05:25:11;;;;;;;0.00;0.00;;;19.00;99.90;;;;;;7378150;19;20144;-68
2023/07/02 05:27:40;;;;;;;0.00;0.00;;;19.30;99.90;;;;;;7377960;19;20156;-69
2023/07/02 05:30:14;;;;;;;0.00;0.00;;;19.40;99.90;;;;;;7379514;19;20180;-69
2023/07/02 05:32:42;;;;;;;0.00;0.00;;;19.40;99.90;;;;;;7377501;19;20205;-67
2023/07/02 05:35:11;;;;;;;0.00;0.00;;;19.40;99.90;;;;;;7376657;19;20157;-67
2023/07/02 05:37:40;;;;;;;0.00;0.00;;;19.40;99.90;;;;;;7377598;19;20161;-68
2023/07/02 05:40:10;;;;;;;0.00;0.00;;;19.40;99.90;;;;;;7379292;19;20158;-67
2023/07/02 05:42:39;;;;;;;0.00;0.00;;;19.30;99.90;;;;;;7378254;19;20191;-68
2023/07/02 05:45:09;;;;;;;0.00;0.00;;;19.20;99.90;;;;;;7376646;19;20157;-68
2023/07/02 05:47:41;;;;;;;0.00;0.00;;;19.10;99.90;;;;;;7378082;19;20152;-69
2023/07/02 05:50:13;;;;;;;0.00;0.00;;;19.10;99.90;;;;;;7379361;19;20168;-68
2023/07/02 05:52:41;;;;;;;0.00;0.00;;;19.20;99.90;;;;;;7377167;19;20248;-67
2023/07/02 05:55:12;;;;;;;0.00;0.00;;;19.10;99.90;;;;;;7375556;19;20159;-68
2023/07/02 05:57:41;;;;;;;0.00;0.00;;;19.10;99.90;;;;;;7377914;19;20167;-68
2023/07/02 06:00:11;;;;;;;0.00;0.00;;;19.00;99.90;;;;;;7377399;19;20222;-67
2023/07/02 06:02:45;;;;;;;0.00;0.00;;;19.10;99.90;;;;;;7378306;19;20152;-68
2023/07/02 06:05:14;;;;;;;0.00;0.00;;;19.00;99.90;;;;;;7373696;19;20152;-68
2023/07/02 06:07:43;;;;;;;0.00;0.00;;;19.10;99.90;;;;;;7376473;19;20164;-67
2023/07/02 06:10:12;;;;;;;0.00;0.00;;;19.10;99.90;;;;;;7377577;19;20164;-68
2023/07/02 06:12:43;;;;;;;0.00;0.00;;;19.20;99.90;;;;;;7372974;19;20606;-68
2023/07/02 06:15:12;;;;;;;0.00;0.00;;;19.30;99.90;;;;;;7374158;19;20160;-68
2023/07/02 06:17:41;;;;;;;0.00;0.00;;;19.30;99.90;;;;;;7375676;19;20209;-69
2023/07/02 06:20:14;;;;;;;0.00;0.00;;;19.20;99.90;;;;;;7377481;19;20141;-69
2023/07/02 06:22:43;;;;;;;0.00;0.00;;;19.30;99.90;;;;;;7373793;19;20183;-69
2023/07/02 06:25:11;;;;;;;0.00;0.00;;;19.20;99.90;;;;;;7374000;19;20149;-68
2023/07/02 06:27:40;;;;;;;0.00;0.00;;;19.20;99.90;;;;;;7374389;19;20148;-69
2023/07/02 06:30:12;;;;;;;0.00;0.00;;;19.10;99.90;;;;;;7376403;19;20148;-69
2023/07/02 06:32:40;;;;;;;0.00;0.00;;;19.20;99.90;;;;;;7374400;19;20177;-68
2023/07/02 06:35:12;;;;;;;0.00;0.00;;;19.10;99.90;;;;;;7372580;19;20178;-68
2023/07/02 06:37:41;;;;;;;0.00;0.00;;;19.10;99.90;;;;;;7374848;19;20153;-69
2023/07/02 06:40:11;;;;;;;0.00;0.00;;;19.10;99.90;;;;;;7374846;19;20160;-68
2023/07/02 06:42:40;;;;;;;0.00;0.00;;;19.10;99.90;;;;;;7371772;19;20181;-67
2023/07/02 06:45:10;;;;;;;0.00;0.00;;;19.10;99.90;;;;;;7372522;19;20152;-69
2023/07/02 06:47:38;;;;;;;0.00;0.00;;;19.10;99.90;;;;;;7374319;19;20184;-69
2023/07/02 06:50:08;;;;;;;0.00;0.00;;;19.20;99.90;;;;;;7374514;19;20165;-68
2023/07/02 06:52:39;;;;;;;0.00;0.00;;;19.10;99.90;;;;;;7373573;19;20192;-69
2023/07/02 06:55:09;;;;;;;0.00;0.00;;;19.10;99.90;;;;;;7371188;19;20149;-69
2023/07/02 06:57:38;;;;;;;0.00;0.00;;;19.10;99.90;;;;;;7373118;19;20156;-69
2023/07/02 07:00:08;;;;;;;0.00;0.00;;;19.00;99.90;;;;;;7375167;19;20205;-69
2023/07/02 07:02:37;;;;;;;0.00;0.00;;;19.00;99.90;;;;;;7374723;19;20180;-69
2023/07/02 07:05:06;;;;;;;0.00;0.00;;;18.90;99.90;;;;;;7371609;19;20152;-71
2023/07/02 07:07:35;;;;;;;0.00;0.00;;;18.80;99.90;;;;;;7373343;19;20607;-70
2023/07/02 07:10:08;;;;;;;0.00;0.00;;;18.70;99.90;;;;;;7373043;19;20157;-70
2023/07/02 07:12:37;;;;;;;0.00;0.00;;;18.60;99.90;;;;;;7370690;19;20184;-71
2023/07/02 07:15:06;;;;;;;0.00;0.00;;;18.50;99.90;;;;;;7367745;19;20163;-70
2023/07/02 07:17:35;;;;;;;0.00;0.00;;;18.50;99.90;;;;;;7374459;19;20156;-71
2023/07/02 07:20:05;;;;;;;0.00;0.00;;;18.40;99.90;;;;;;7373349;19;20176;-71
2023/07/02 07:22:33;;;;;;;0.00;0.00;;;18.50;99.90;;;;;;7373206;19;20160;-70
2023/07/02 07:25:02;;;;;;;0.00;0.00;;;18.40;99.90;;;;;;7369939;19;20141;-70
2023/07/02 07:27:34;;;;;;;0.00;0.00;;;18.40;99.90;;;;;;7373500;19;20149;-70
2023/07/02 07:30:02;;;;;;;0.00;0.00;;;18.40;99.90;;;;;;7374506;19;20172;-70
2023/07/02 07:32:31;;;;;;;0.00;0.00;;;18.40;99.90;;;;;;7375094;19;20157;-68
2023/07/02 07:35:00;;;;;;;0.00;0.00;;;18.40;99.90;;;;;;7369735;19;20156;-70
2023/07/02 07:37:29;;;;;;;0.00;0.00;;;18.50;99.90;;;;;;7372799;19;20180;-70
2023/07/02 07:39:58;;;;;;;0.00;0.00;;;18.60;99.90;;;;;;7372285;19;20214;-71
2023/07/02 07:42:27;;;;;;;0.00;0.00;;;18.50;99.90;;;;;;7375689;19;20156;-70
2023/07/02 07:44:58;;;;;;;0.00;0.00;;;18.70;99.90;;;;;;7369622;19;20157;-70
2023/07/02 07:47:27;;;;;;;0.00;0.00;;;18.60;99.90;;;;;;7374470;19;20178;-70
2023/07/02 07:49:58;;;;;;;0.00;0.00;;;18.60;99.90;;;;;;7372245;19;20176;-70
2023/07/02 07:52:27;;;;;;;0.00;0.00;;;18.60;99.90;;;;;;7373061;19;20178;-71
2023/07/02 07:54:56;;;;;;;0.00;0.00;;;18.70;99.90;;;;;;7369909;19;20152;-71
2023/07/02 07:57:25;;;;;;;0.00;0.00;;;18.70;99.90;;;;;;7373148;19;20184;-70
2023/07/02 07:59:54;;;;;;;0.00;0.00;;;18.70;99.90;;;;;;7373188;19;20169;-70
2023/07/02 08:02:25;;;;;;;0.00;0.00;;;18.80;99.90;;;;;;7370686;19;20163;-70
2023/07/02 08:04:54;;;;;;;0.00;0.00;;;18.90;99.90;;;;;;7371020;19;20141;-70
2023/07/02 08:07:23;;;;;;;0.00;0.00;;;19.10;99.90;;;;;;7372128;19;20163;-70
2023/07/02 08:09:52;;;;;;;0.00;0.00;;;19.20;99.90;;;;;;7372788;19;20161;-70
2023/07/02 08:12:20;;;;;;;0.00;0.00;;;19.20;99.90;;;;;;7373359;19;20156;-71
2023/07/02 08:14:49;;;;;;;0.00;0.00;;;19.40;99.90;;;;;;7367959;19;20200;-71
2023/07/02 08:17:18;;;;;;;0.00;0.00;;;19.70;99.90;;;;;;7373140;19;20153;-71
2023/07/02 08:19:49;;;;;;;0.00;0.00;;;19.80;99.90;;;;;;7371655;19;20164;-71
2023/07/02 08:22:21;;;;;;;0.00;0.00;;;19.80;99.90;;;;;;7370348;19;20148;-70
2023/07/02 08:24:50;;;;;;;0.00;0.00;;;19.90;99.90;;;;;;7369602;19;20157;-72
2023/07/02 08:27:19;;;;;;;0.00;0.00;;;19.90;99.90;;;;;;7372602;19;20216;-71
2023/07/02 08:29:48;;;;;;;0.00;0.00;;;20.10;99.90;;;;;;7372546;19;20145;-70
2023/07/02 08:32:17;;;;;;;0.00;0.00;;;20.40;99.90;;;;;;7371525;19;20156;-69
2023/07/02 08:34:50;;;;;;;0.00;0.00;;;20.80;99.90;;;;;;7367220;19;20152;-67
2023/07/02 08:37:19;;;;;;;0.00;0.00;;;21.00;99.90;;;;;;7374801;19;20152;-69
2023/07/02 08:39:48;;;;;;;0.00;0.00;;;21.10;99.90;;;;;;7378333;19;20159;-69
2023/07/02 08:42:19;;;;;;;0.00;0.00;;;21.30;99.90;;;;;;7379200;19;20160;-70
2023/07/02 08:44:49;;;;;;;0.00;0.00;;;21.30;99.90;;;;;;7376630;19;20152;-71
2023/07/02 08:47:18;;;;;;;0.00;0.00;;;21.30;99.90;;;;;;7379586;19;20155;-69
2023/07/02 08:49:51;;;;;;;0.00;0.00;;;21.40;99.90;;;;;;7378217;19;20156;-70
2023/07/02 08:52:20;;;;;;;0.00;0.00;;;21.40;99.90;;;;;;7372279;19;20160;-69
2023/07/02 08:54:49;;;;;;;0.00;0.00;;;21.20;99.90;;;;;;7371769;19;20559;-69
2023/07/02 08:57:18;;;;;;;0.00;0.00;;;21.20;99.90;;;;;;7379889;19;20176;-71
2023/07/02 08:59:47;;;;;;;0.00;0.00;;;21.20;99.90;;;;;;7378251;19;20152;-70
2023/07/02 09:02:16;;;;;;;0.00;0.00;;;21.30;99.90;;;;;;7375765;19;20144;-70
2023/07/02 09:04:45;;;;;;;0.00;0.00;;;21.40;99.90;;;;;;7376507;19;20152;-69
2023/07/02 09:07:16;;;;;;;0.00;0.00;;;21.70;99.90;;;;;;7379351;19;20160;-71
2023/07/02 09:09:49;;;;;;;0.00;0.00;;;21.70;99.90;;;;;;7379123;19;20159;-70
2023/07/02 09:12:28;;;;;;;0.00;0.00;;;21.70;99.90;;;;;;7377070;19;20165;-68
2023/07/02 09:14:58;;;;;;;0.00;0.00;;;21.90;99.90;;;;;;7373698;19;20153;-69
2023/07/02 09:17:32;;;;;;;0.00;0.00;;;22.00;99.90;;;;;;7378658;19;20220;-70
2023/07/02 09:20:04;;;;;;;0.00;0.00;;;22.20;99.90;;;;;;7377057;19;20149;-69
2023/07/02 09:22:36;;;;;;;0.00;0.00;;;22.30;99.90;;;;;;7376600;19;20145;-70
2023/07/02 09:25:06;;;;;;;0.00;0.00;;;22.40;99.90;;;;;;7375761;19;20184;-69
2023/07/02 09:27:41;;;;;;;0.00;0.00;;;22.50;99.90;;;;;;7378185;19;20157;-69
2023/07/02 09:30:13;;;;;;;0.00;0.00;;;22.60;99.90;;;;;;7377981;19;20147;-70
2023/07/02 09:32:42;;;;;;;0.00;0.00;;;22.80;99.90;;;;;;7378593;19;20180;-70
2023/07/02 09:35:11;;;;;;;0.00;0.00;;;22.90;99.90;;;;;;7373803;19;20145;-70
2023/07/02 09:37:46;;;;;;;0.00;0.00;;;23.10;99.90;;;;;;7377170;19;20148;-70
2023/07/02 09:40:17;;;;;;;0.00;0.00;;;23.10;99.90;;;;;;7378096;19;20227;-69
2023/07/02 09:42:52;;;;;;;0.00;0.00;;;23.40;99.90;;;;;;7377476;19;20198;-70
2023/07/02 09:45:21;;;;;;;0.00;0.00;;;23.40;99.90;;;;;;7375281;19;20160;-69
2023/07/02 09:47:54;;;;;;;0.00;0.00;;;23.20;99.90;;;;;;7376768;19;20754;-69
2023/07/02 09:50:24;;;;;;;0.00;0.00;;;23.00;99.90;;;;;;7377643;19;20153;-70
2023/07/02 09:52:56;;;;;;;0.00;0.00;;;22.90;99.90;;;;;;7375670;19;20675;-70
2023/07/02 09:55:25;;;;;;;0.00;0.00;;;22.90;99.90;;;;;;7374140;19;20160;-69
2023/07/02 09:57:54;;;;;;;0.00;0.00;;;22.90;99.90;;;;;;7375234;19;20172;-69
2023/07/02 10:00:22;;;;;;;0.00;0.00;;;22.70;99.90;;;;;;7377885;19;20155;-70
2023/07/02 10:02:52;;;;;;;0.00;0.00;;;22.60;99.90;;;;;;7372846;19;20290;-70
2023/07/02 10:05:31;;;;;;;0.00;0.00;;;22.40;99.90;;;;;;7375610;19;20157;-71
2023/07/02 10:08:17;;;;;;;0.00;0.00;;;22.20;99.90;;;;;;7377171;19;20152;-69
2023/07/02 10:10:46;;;;;;;0.00;0.00;;;22.30;99.90;;;;;;7377681;19;20157;-70
2023/07/02 10:13:15;;;;;;;0.00;0.00;;;22.30;99.90;;;;;;7376626;19;20200;-69
2023/07/02 10:15:44;;;;;;;0.00;0.00;;;22.50;99.90;;;;;;7373966;19;20156;-69
2023/07/02 10:18:12;;;;;;;0.00;0.00;;;22.70;99.90;;;;;;7375584;19;20141;-71
2023/07/02 10:20:43;;;;;;;0.00;0.00;;;22.70;99.90;;;;;;7377394;19;20153;-70
2023/07/02 10:23:14;;;;;;;0.00;0.00;;;22.70;99.90;;;;;;7375548;19;20215;-71
2023/07/02 10:25:43;;;;;;;0.00;0.00;;;22.70;99.90;;;;;;7375145;19;20140;-69
2023/07/02 10:28:19;;;;;;;0.00;0.00;;;22.80;99.90;;;;;;7376522;19;20164;-71
2023/07/02 10:30:49;;;;;;;0.00;0.00;;;23.00;99.90;;;;;;7376533;19;20144;-70
2023/07/02 10:33:18;;;;;;;0.00;0.00;;;23.10;99.90;;;;;;7375091;19;20644;-69
2023/07/02 10:35:49;;;;;;;0.00;0.00;;;23.10;99.90;;;;;;7371680;19;20155;-70
2023/07/02 10:38:24;;;;;;;0.00;0.00;;;23.30;99.90;;;;;;7376065;19;20141;-70
2023/07/02 10:40:58;;;;;;;0.00;0.00;;;23.20;99.90;;;;;;7375625;19;20156;-71
2023/07/02 10:43:28;;;;;;;0.00;0.00;;;23.10;99.90;;;;;;7372006;19;20180;-70
2023/07/02 10:45:59;;;;;;;0.00;0.00;;;23.00;99.90;;;;;;7373614;19;20156;-69
2023/07/02 10:48:28;;;;;;;0.00;0.00;;;22.80;99.90;;;;;;7375944;19;20159;-70
2023/07/02 10:50:57;;;;;;;0.00;0.00;;;22.80;99.90;;;;;;7374917;19;20224;-69
2023/07/02 10:53:29;;;;;;;0.00;0.00;;;22.90;99.90;;;;;;7375066;19;20204;-70
2023/07/02 10:55:59;;;;;;;0.00;0.00;;;22.90;99.90;;;;;;7371950;19;20156;-70
2023/07/02 10:58:28;;;;;;;0.00;0.00;;;22.90;99.90;;;;;;7374321;19;20148;-69
2023/07/02 11:00:57;;;;;;;0.00;0.00;;;23.00;99.90;;;;;;7373993;19;20161;-70
2023/07/02 11:03:27;;;;;;;0.00;0.00;;;23.10;99.90;;;;;;7371059;19;20176;-70
2023/07/02 11:05:56;;;;;;;0.00;0.00;;;23.10;99.90;;;;;;7369835;19;20172;-68
2023/07/02 11:08:36;;;;;;;0.00;0.00;;;23.20;99.90;;;;;;7374667;19;20160;-69
2023/07/02 11:11:09;;;;;;;0.00;0.00;;;23.40;99.90;;;;;;7374807;19;20159;-69
2023/07/02 11:13:47;;;;;;;0.00;0.00;;;23.50;99.90;;;;;;7372999;19;20180;-68
2023/07/02 11:16:25;;;;;;;0.00;0.00;;;23.60;99.90;;;;;;7372102;19;20140;-70
2023/07/02 11:18:55;;;;;;;0.00;0.00;;;;;;;;;;7373433;19;20180;-69
2023/07/02 11:21:23;;;;;;;0.00;0.00;;;24.00;99.90;;;;;;7368943;19;20187;-69
2023/07/02 11:24:04;;;;;;;0.00;0.00;;;23.90;99.90;;;;;;7371347;19;20188;-69
2023/07/02 11:26:38;;;;;;;0.00;0.00;;;24.00;99.90;;;;;;7374802;19;20224;-69
2023/07/02 11:29:09;;;;;;;0.00;0.00;;;24.30;99.90;;;;;;7374330;19;20179;-69
2023/07/02 11:31:38;;;;;;;0.00;0.00;;;24.10;99.90;;;;;;7371793;19;20152;-69
2023/07/02 11:34:14;;;;;;;0.00;0.00;;;23.80;99.90;;;;;;7371590;19;20181;-69
2023/07/02 11:36:43;;;;;;;0.00;0.00;;;23.80;99.90;;;;;;7372436;19;20164;-70
2023/07/02 11:39:15;;;;;;;0.00;0.00;;;23.80;99.90;;;;;;7373882;19;20148;-69
2023/07/02 11:41:46;;;;;;;0.00;0.00;;;23.90;99.90;;;;;;7373709;19;20153;-69
2023/07/02 11:44:15;;;;;;;0.00;0.00;;;24.00;99.90;;;;;;7370117;19;20188;-71
2023/07/02 11:46:44;;;;;;;0.00;0.00;;;24.00;99.90;;;;;;7374423;19;20156;-70
2023/07/02 11:49:13;;;;;;;0.00;0.00;;;24.00;99.90;;;;;;7374805;19;20148;-68
2023/07/02 11:51:46;;;;;;;0.00;0.00;;;24.10;99.90;;;;;;7374616;19;20147;-68
2023/07/02 11:54:18;;;;;;;0.00;0.00;;;24.10;99.90;;;;;;7370012;19;20208;-69
2023/07/02 11:56:47;;;;;;;0.00;0.00;;;24.20;99.90;;;;;;7370823;19;20186;-69
2023/07/02 11:59:16;;;;;;;0.00;0.00;;;24.30;99.90;;;;;;7373801;19;20187;-71
2023/07/02 12:01:45;;;;;;;0.00;0.00;;;;;;;;;;7369210;19;20153;-68
2023/07/02 12:04:14;;;;;;;0.00;0.00;;;;;;;;;;7367882;19;20199;-69
2023/07/02 12:06:43;;;;;;;0.00;0.00;;;23.50;99.90;;;;;;7373355;19;20231;-69
2023/07/02 12:09:12;;;;;;;0.00;0.00;;;;;;;;;;7371957;19;20152;-67
2023/07/02 12:11:45;;;;;;;0.00;0.00;;;;;;;;;;7374883;19;20161;-69
2023/07/02 12:14:14;;;;;;;0.00;0.00;;;23.60;99.90;;;;;;7375976;19;20255;-68
2023/07/02 12:16:43;;;;;;;0.00;0.00;;;23.80;99.90;;;;;;7378132;19;20168;-68
2023/07/02 12:19:11;;;;;;;0.00;0.00;;;23.90;99.90;;;;;;7380380;19;20164;-70
2023/07/02 12:21:40;;;;;;;0.00;0.00;;;24.10;99.90;;;;;;7381299;19;20152;-70
2023/07/02 12:24:10;;;;;;;0.00;0.00;;;24.10;99.90;;;;;;7375475;19;20180;-69
2023/07/02 12:26:39;;;;;;;0.00;0.00;;;;;;;;;;7380874;19;20156;-68
2023/07/02 12:29:11;;;;;;;0.00;0.00;;;24.10;99.90;;;;;;7379956;19;20152;-69
2023/07/02 12:31:39;;;;;;;0.00;0.00;;;24.00;99.90;;;;;;7380571;19;20156;-68
2023/07/02 12:34:08;;;;;;;0.00;0.00;;;23.90;99.90;;;;;;7375508;19;20189;-68
2023/07/02 12:36:37;;;;;;;0.00;0.00;;;23.90;99.90;;;;;;7377443;19;20156;-68
2023/07/02 12:39:06;;;;;;;0.00;0.00;;;24.00;99.90;;;;;;7378796;19;20156;-71
2023/07/02 12:41:37;;;;;;;0.00;0.00;;;24.00;99.90;;;;;;7380607;19;20175;-69
2023/07/02 12:44:05;;;;;;;0.00;0.00;;;24.00;99.90;;;;;;7375609;19;20199;-68
2023/07/02 12:46:37;;;;;;;0.00;0.00;;;24.00;99.90;;;;;;7379303;19;20157;-67
2023/07/02 12:49:06;;;;;;;0.00;0.00;;;24.00;99.90;;;;;;7379455;19;20207;-69
2023/07/02 12:51:35;;;;;;;0.00;0.00;;;23.90;99.90;;;;;;7376765;19;20161;-68
2023/07/02 12:54:03;;;;;;;0.00;0.00;;;23.90;99.90;;;;;;7373712;19;20184;-69
2023/07/02 12:56:32;;;;;;;0.00;0.00;;;23.90;99.90;;;;;;7375618;19;20185;-68
2023/07/02 12:59:01;;;;;;;0.00;0.00;;;23.80;99.90;;;;;;7379786;19;20510;-69
2023/07/02 13:01:30;;;;;;;0.00;0.00;;;23.70;99.90;;;;;;7379078;19;20176;-70
2023/07/02 13:04:03;;;;;;;0.00;0.00;;;23.70;99.90;;;;;;7372736;19;20176;-70